createdAt,value
2018-02-26T00:00:21.032Z,16.40
2018-02-26T00:02:49.407Z,16.40
2018-02-26T00:05:18.411Z,16.40
2018-02-26T00:07:47.374Z,16.40
2018-02-26T00:10:16.328Z,16.40
2018-02-26T00:12:45.288Z,16.40
2018-02-26T00:15:14.215Z,16.40
2018-02-26T00:17:42.401Z,16.40
2018-02-26T00:20:10.561Z,16.40
2018-02-26T00:22:41.693Z,16.40
2018-02-26T00:25:09.907Z,16.40
2018-02-26T00:27:38.097Z,16.40
2018-02-26T00:30:07.016Z,16.40
2018-02-26T00:32:35.213Z,16.30
2018-02-26T00:35:03.375Z,16.40
2018-02-26T00:37:31.577Z,16.40
2018-02-26T00:39:59.879Z,16.40
2018-02-26T00:42:28.111Z,16.40
2018-02-26T00:44:56.344Z,16.40
2018-02-26T00:47:25.335Z,16.40
2018-02-26T00:49:54.234Z,16.30
2018-02-26T00:52:22.424Z,16.40
2018-02-26T00:54:50.615Z,16.40
2018-02-26T00:57:18.842Z,16.40
2018-02-26T00:59:47.852Z,16.40
2018-02-26T01:02:16.052Z,16.30
2018-02-26T01:04:44.333Z,16.40
2018-02-26T01:07:13.234Z,16.40
2018-02-26T01:09:41.407Z,16.40
2018-02-26T01:12:09.627Z,16.40
2018-02-26T01:14:38.572Z,16.40
2018-02-26T01:17:06.727Z,16.40
2018-02-26T01:19:34.870Z,16.40
2018-02-26T01:22:03.151Z,16.40
2018-02-26T01:24:31.314Z,16.40
2018-02-26T01:27:00.250Z,16.40
2018-02-26T01:29:28.417Z,16.40
2018-02-26T01:31:56.600Z,16.40
2018-02-26T01:34:24.751Z,16.30
2018-02-26T01:36:52.964Z,16.30
2018-02-26T01:39:21.898Z,16.30
2018-02-26T01:41:50.123Z,16.20
2018-02-26T01:44:18.316Z,16.20
2018-02-26T01:46:47.306Z,16.30
2018-02-26T01:49:15.498Z,16.30
2018-02-26T01:51:43.676Z,16.30
2018-02-26T01:54:11.846Z,16.30
2018-02-26T01:56:40.001Z,16.30
2018-02-26T01:59:08.987Z,16.30
2018-02-26T02:01:37.165Z,16.30
2018-02-26T02:04:05.327Z,16.30
2018-02-26T02:06:33.511Z,16.30
2018-02-26T02:09:01.799Z,16.30
2018-02-26T02:11:30.724Z,16.30
2018-02-26T02:13:59.132Z,16.30
2018-02-26T02:16:27.383Z,16.30
2018-02-26T02:18:55.583Z,16.30
2018-02-26T02:21:23.783Z,16.30
2018-02-26T02:23:54.214Z,16.30
2018-02-26T02:26:23.190Z,16.30
2018-02-26T02:28:51.363Z,16.30
2018-02-26T02:31:19.571Z,16.30
2018-02-26T02:33:47.772Z,16.30
2018-02-26T02:36:15.940Z,16.30
2018-02-26T02:38:44.313Z,16.30
2018-02-26T02:41:12.574Z,16.30
2018-02-26T02:43:40.743Z,16.30
2018-02-26T02:46:08.915Z,16.30
2018-02-26T02:48:38.068Z,16.30
2018-02-26T02:51:06.216Z,16.30
2018-02-26T02:53:34.367Z,16.30
2018-02-26T02:56:02.581Z,16.30
2018-02-26T02:58:30.739Z,16.30
2018-02-26T03:00:59.012Z,16.40
2018-02-26T03:03:27.159Z,16.40
2018-02-26T03:05:55.401Z,16.40
2018-02-26T03:08:24.342Z,16.40
2018-02-26T03:10:52.535Z,16.40
2018-02-26T03:13:20.681Z,16.50
2018-02-26T03:15:48.915Z,16.50
2018-02-26T03:18:17.908Z,16.50
2018-02-26T03:20:46.086Z,16.50
2018-02-26T03:23:14.251Z,16.50
2018-02-26T03:25:43.164Z,16.40
2018-02-26T03:28:11.373Z,16.50
2018-02-26T03:30:39.530Z,16.40
2018-02-26T03:33:07.726Z,16.40
2018-02-26T03:35:35.869Z,16.40
2018-02-26T03:38:04.793Z,16.30
2018-02-26T03:40:32.963Z,16.30
2018-02-26T03:43:01.150Z,16.30
2018-02-26T03:45:29.438Z,16.30
2018-02-26T03:47:58.408Z,16.30
2018-02-26T03:50:26.595Z,16.30
2018-02-26T03:52:54.761Z,16.30
2018-02-26T03:55:22.938Z,16.20
2018-02-26T03:57:51.143Z,16.20
2018-02-26T04:00:20.062Z,16.20
2018-02-26T04:02:48.235Z,16.20
2018-02-26T04:05:16.398Z,16.20
2018-02-26T04:07:44.632Z,16.20
2018-02-26T04:10:13.563Z,16.10
2018-02-26T04:12:41.755Z,16.10
2018-02-26T04:15:09.974Z,16.10
2018-02-26T04:17:38.145Z,16.10
2018-02-26T04:20:06.376Z,16.10
2018-02-26T04:22:34.604Z,16.10
2018-02-26T04:25:02.789Z,16.10
2018-02-26T04:27:30.974Z,16.10
2018-02-26T04:29:59.134Z,16.10
2018-02-26T04:32:27.335Z,16.10
2018-02-26T04:34:55.584Z,16.10
2018-02-26T04:37:23.735Z,16.10
2018-02-26T04:39:51.911Z,16.10
2018-02-26T04:42:20.925Z,16.10
2018-02-26T04:44:49.103Z,16.10
2018-02-26T04:47:17.261Z,16.10
2018-02-26T04:49:46.232Z,16.00
2018-02-26T04:52:14.434Z,16.00
2018-02-26T04:54:42.616Z,16.00
2018-02-26T04:57:10.815Z,16.00
2018-02-26T04:59:38.981Z,16.00
2018-02-26T05:02:07.161Z,16.00
2018-02-26T05:04:35.386Z,16.00
2018-02-26T05:07:04.360Z,16.00
2018-02-26T05:09:32.503Z,16.00
2018-02-26T05:12:00.694Z,16.00
2018-02-26T05:14:28.861Z,16.10
2018-02-26T05:16:57.044Z,16.10
2018-02-26T05:19:25.222Z,16.10
2018-02-26T05:21:53.400Z,16.10
2018-02-26T05:24:21.547Z,16.20
2018-02-26T05:26:49.726Z,16.20
2018-02-26T05:29:17.894Z,16.20
2018-02-26T05:31:46.111Z,16.10
2018-02-26T05:34:14.416Z,16.10
2018-02-26T05:36:42.568Z,16.10
2018-02-26T05:39:10.790Z,16.10
2018-02-26T05:41:39.114Z,16.10
2018-02-26T05:44:08.131Z,16.10
2018-02-26T05:46:36.366Z,16.10
2018-02-26T05:49:05.330Z,16.10
2018-02-26T05:51:33.491Z,16.10
2018-02-26T05:54:01.664Z,16.10
2018-02-26T05:56:29.852Z,16.10
2018-02-26T05:58:58.095Z,16.00
2018-02-26T06:01:26.475Z,16.00
2018-02-26T06:03:54.657Z,16.10
2018-02-26T06:06:22.859Z,16.10
2018-02-26T06:08:51.079Z,16.10
2018-02-26T06:11:19.269Z,16.10
2018-02-26T06:13:47.451Z,16.10
2018-02-26T06:16:15.807Z,16.20
2018-02-26T06:18:43.969Z,16.20
2018-02-26T06:21:12.205Z,16.30
2018-02-26T06:23:40.503Z,16.30
2018-02-26T06:26:09.645Z,16.40
2018-02-26T06:28:37.828Z,16.30
2018-02-26T06:31:06.049Z,16.40
2018-02-26T06:33:35.128Z,16.40
2018-02-26T06:36:03.464Z,16.40
2018-02-26T06:38:31.750Z,16.50
2018-02-26T06:40:59.992Z,16.50
2018-02-26T06:43:28.222Z,16.50
2018-02-26T06:45:57.305Z,16.60
2018-02-26T06:48:25.608Z,16.50
2018-02-26T06:50:53.987Z,16.60
2018-02-26T06:53:22.993Z,16.50
2018-02-26T06:55:51.956Z,16.50
2018-02-26T06:58:21.112Z,16.50
2018-02-26T07:00:49.374Z,16.50
2018-02-26T07:03:17.598Z,16.50
2018-02-26T07:05:46.539Z,16.50
2018-02-26T07:08:14.694Z,16.50
2018-02-26T07:10:42.860Z,16.50
2018-02-26T07:13:11.032Z,16.50
2018-02-26T07:15:40.113Z,16.50
2018-02-26T07:18:08.283Z,16.40
2018-02-26T07:20:37.341Z,16.40
2018-02-26T07:23:05.572Z,16.40
2018-02-26T07:25:33.802Z,16.40
2018-02-26T07:28:01.979Z,16.40
2018-02-26T07:30:30.177Z,16.40
2018-02-26T07:32:58.372Z,16.40
2018-02-26T07:35:27.415Z,16.30
2018-02-26T07:37:55.606Z,16.30
2018-02-26T07:40:24.582Z,16.20
2018-02-26T07:42:52.792Z,16.20
2018-02-26T07:45:20.974Z,16.20
2018-02-26T07:47:49.651Z,16.20
2018-02-26T07:50:17.899Z,16.20
2018-02-26T07:52:46.042Z,16.20
2018-02-26T07:55:14.279Z,16.20
2018-02-26T07:57:42.457Z,16.20
2018-02-26T08:00:10.618Z,16.20
2018-02-26T08:02:38.842Z,16.20
2018-02-26T08:05:07.045Z,16.20
2018-02-26T08:07:35.218Z,16.20
2018-02-26T08:10:04.146Z,16.20
2018-02-26T08:12:32.308Z,16.20
2018-02-26T08:15:00.462Z,16.10
2018-02-26T08:17:29.476Z,16.10
2018-02-26T08:19:57.622Z,16.10
2018-02-26T08:22:26.631Z,16.10
2018-02-26T08:24:54.787Z,16.10
2018-02-26T08:27:22.990Z,16.20
2018-02-26T08:29:51.181Z,16.20
2018-02-26T08:32:19.458Z,16.30
2018-02-26T08:34:47.698Z,16.30
2018-02-26T08:37:16.694Z,16.40
2018-02-26T08:39:45.671Z,16.40
2018-02-26T08:42:14.624Z,16.50
2018-02-26T08:44:42.882Z,16.50
2018-02-26T08:47:11.059Z,16.50
2018-02-26T08:49:39.202Z,16.50
2018-02-26T08:52:07.498Z,16.50
2018-02-26T08:54:35.789Z,16.50
2018-02-26T08:57:03.956Z,16.50
2018-02-26T08:59:32.212Z,16.50
2018-02-26T09:02:00.471Z,16.50
2018-02-26T09:04:28.661Z,16.50
2018-02-26T09:06:56.843Z,16.50
2018-02-26T09:09:25.169Z,16.50
2018-02-26T09:11:54.308Z,16.50
2018-02-26T09:14:22.478Z,16.50
2018-02-26T09:16:50.796Z,16.50
2018-02-26T09:19:18.981Z,16.50
2018-02-26T09:21:47.206Z,16.50
2018-02-26T09:24:15.564Z,16.50
2018-02-26T09:26:43.782Z,16.50
2018-02-26T09:29:12.010Z,16.50
2018-02-26T09:31:41.010Z,16.50
2018-02-26T09:34:09.324Z,16.40
2018-02-26T09:36:37.693Z,16.50
2018-02-26T09:39:05.989Z,16.50
2018-02-26T09:41:34.182Z,16.50
2018-02-26T09:44:03.344Z,16.50
2018-02-26T09:46:31.562Z,16.50
2018-02-26T09:49:00.490Z,16.50
2018-02-26T09:51:28.862Z,16.50
2018-02-26T09:53:57.020Z,16.50
2018-02-26T09:56:25.226Z,16.50
2018-02-26T09:58:53.458Z,16.50
2018-02-26T10:01:22.428Z,16.50
2018-02-26T10:03:50.701Z,16.50
2018-02-26T10:06:18.876Z,16.50
2018-02-26T10:08:47.052Z,16.40
2018-02-26T10:11:16.070Z,16.50
2018-02-26T10:13:44.320Z,16.50
2018-02-26T10:16:12.551Z,16.50
2018-02-26T10:18:40.728Z,16.50
2018-02-26T10:21:08.894Z,16.50
2018-02-26T10:23:37.082Z,16.50
2018-02-26T10:26:05.354Z,16.50
2018-02-26T10:28:33.597Z,16.50
2018-02-26T10:31:01.873Z,16.50
2018-02-26T10:33:30.392Z,16.40
2018-02-26T10:35:58.599Z,16.40
2018-02-26T10:38:27.674Z,16.40
2018-02-26T10:40:56.040Z,16.40
2018-02-26T10:43:24.247Z,16.40
2018-02-26T10:45:52.471Z,16.40
2018-02-26T10:48:20.736Z,16.40
2018-02-26T10:50:48.988Z,16.40
2018-02-26T10:53:17.200Z,16.40
2018-02-26T10:55:45.384Z,16.40
2018-02-26T10:58:14.291Z,16.40
2018-02-26T11:00:42.492Z,16.40
2018-02-26T11:03:11.481Z,16.40
2018-02-26T11:05:40.434Z,16.40
2018-02-26T11:08:08.649Z,16.30
2018-02-26T11:10:37.566Z,16.40
2018-02-26T11:13:05.862Z,16.30
2018-02-26T11:15:34.051Z,16.40
2018-02-26T11:18:02.254Z,16.40
2018-02-26T11:20:31.179Z,16.40
2018-02-26T11:22:59.347Z,16.30
2018-02-26T11:25:27.549Z,16.40
2018-02-26T11:27:55.731Z,16.40
2018-02-26T11:30:23.946Z,16.50
2018-02-26T11:32:52.176Z,16.50
2018-02-26T11:35:20.375Z,16.60
2018-02-26T11:37:48.650Z,16.60
2018-02-26T11:40:16.799Z,16.60
2018-02-26T11:42:46.309Z,16.60
2018-02-26T11:45:14.525Z,16.60
2018-02-26T11:47:42.722Z,16.60
2018-02-26T11:50:11.075Z,16.60
2018-02-26T11:52:40.050Z,16.50
2018-02-26T11:55:09.011Z,16.50
2018-02-26T11:57:38.853Z,16.50
2018-02-26T12:00:07.726Z,16.50
2018-02-26T12:02:36.003Z,16.50
2018-02-26T12:05:04.226Z,16.60
2018-02-26T12:07:32.500Z,16.60
2018-02-26T12:10:00.671Z,16.50
2018-02-26T12:12:28.981Z,16.50
2018-02-26T12:14:57.219Z,16.40
2018-02-26T12:17:25.503Z,16.40
2018-02-26T12:19:54.329Z,16.40
2018-02-26T12:22:22.535Z,16.30
2018-02-26T12:24:51.517Z,16.30
2018-02-26T12:27:20.513Z,16.30
2018-02-26T12:29:48.777Z,16.30
2018-02-26T12:32:17.040Z,16.40
2018-02-26T12:34:45.224Z,16.40
2018-02-26T12:37:13.400Z,16.40
2018-02-26T12:39:41.587Z,16.40
2018-02-26T12:42:10.602Z,16.40
2018-02-26T12:44:38.842Z,16.30
2018-02-26T12:47:07.097Z,16.40
2018-02-26T12:49:35.350Z,16.40
2018-02-26T12:52:03.646Z,16.40
2018-02-26T12:54:31.882Z,16.40
2018-02-26T12:57:00.055Z,16.50
2018-02-26T12:59:28.293Z,16.50
2018-02-26T13:01:56.673Z,16.50
2018-02-26T13:04:24.828Z,16.50
2018-02-26T13:06:53.840Z,16.50
2018-02-26T13:09:22.675Z,16.50
2018-02-26T13:11:50.918Z,16.50
2018-02-26T13:14:19.180Z,16.50
2018-02-26T13:16:48.233Z,16.60
2018-02-26T13:19:16.481Z,16.60
2018-02-26T13:21:44.655Z,16.60
2018-02-26T13:24:12.859Z,16.60
2018-02-26T13:26:41.117Z,16.60
2018-02-26T13:29:09.360Z,16.60
2018-02-26T13:31:37.663Z,16.70
2018-02-26T13:34:05.895Z,16.70
2018-02-26T13:36:34.158Z,16.60
2018-02-26T13:39:03.109Z,16.50
2018-02-26T13:41:32.207Z,16.60
2018-02-26T13:44:00.456Z,16.50
2018-02-26T13:46:28.626Z,16.50
2018-02-26T13:48:56.875Z,16.50
2018-02-26T13:51:25.088Z,16.50
2018-02-26T13:53:53.268Z,16.50
2018-02-26T13:56:21.440Z,16.50
2018-02-26T13:58:49.786Z,16.40
2018-02-26T14:01:18.056Z,16.40
2018-02-26T14:03:47.018Z,16.30
2018-02-26T14:06:15.202Z,16.30
2018-02-26T14:08:43.439Z,16.30
2018-02-26T14:11:11.594Z,16.40
2018-02-26T14:13:39.784Z,16.40
2018-02-26T14:16:08.071Z,16.30
2018-02-26T14:18:36.230Z,16.30
2018-02-26T14:21:04.455Z,16.30
2018-02-26T14:23:32.708Z,16.30
2018-02-26T14:26:00.966Z,16.30
2018-02-26T14:28:29.167Z,16.30
2018-02-26T14:30:57.594Z,16.30
2018-02-26T14:33:25.770Z,16.30
2018-02-26T14:35:53.960Z,16.30
2018-02-26T14:38:22.357Z,16.30
2018-02-26T14:40:50.542Z,16.20
2018-02-26T14:43:18.960Z,16.20
2018-02-26T14:45:47.123Z,16.10
2018-02-26T14:48:16.335Z,16.10
2018-02-26T14:50:44.587Z,16.10
2018-02-26T14:53:13.183Z,16.10
2018-02-26T14:55:41.379Z,16.10
2018-02-26T14:58:09.628Z,16.10
2018-02-26T15:00:37.841Z,16.20
2018-02-26T15:03:06.020Z,16.20
2018-02-26T15:05:34.237Z,16.20
2018-02-26T15:08:02.425Z,16.20
2018-02-26T15:10:30.596Z,16.20
2018-02-26T15:12:58.965Z,16.20
2018-02-26T15:15:27.276Z,16.20
2018-02-26T15:17:55.527Z,16.20
2018-02-26T15:20:23.776Z,16.20
2018-02-26T15:22:52.813Z,16.20
2018-02-26T15:25:20.989Z,16.20
2018-02-26T15:27:49.216Z,16.30
2018-02-26T15:30:17.536Z,16.30
2018-02-26T15:32:45.738Z,16.30
2018-02-26T15:35:14.051Z,16.40
2018-02-26T15:37:42.975Z,16.40
2018-02-26T15:40:11.388Z,16.40
2018-02-26T15:42:39.693Z,16.50
2018-02-26T15:45:08.659Z,16.60
2018-02-26T15:47:36.868Z,16.50
2018-02-26T15:50:05.856Z,16.70
2018-02-26T15:52:34.863Z,16.70
2018-02-26T15:55:03.210Z,16.70
2018-02-26T15:57:32.150Z,16.80
2018-02-26T16:00:00.428Z,16.80
2018-02-26T16:02:28.679Z,16.80
2018-02-26T16:04:56.930Z,16.80
2018-02-26T16:07:25.999Z,16.80
2018-02-26T16:09:54.246Z,16.80
2018-02-26T16:12:22.465Z,16.80
2018-02-26T16:14:51.793Z,16.80
2018-02-26T16:17:19.987Z,16.80
2018-02-26T16:19:49.000Z,16.80
2018-02-26T16:22:17.279Z,16.80
2018-02-26T16:24:45.560Z,16.80
2018-02-26T16:27:14.583Z,16.80
2018-02-26T16:29:43.603Z,16.70
2018-02-26T16:32:11.821Z,16.70
2018-02-26T16:34:39.970Z,16.70
2018-02-26T16:37:08.281Z,16.70
2018-02-26T16:39:36.784Z,16.60
2018-02-26T16:42:05.745Z,16.70
2018-02-26T16:44:34.031Z,16.70
2018-02-26T16:47:03.034Z,16.70
2018-02-26T16:49:31.358Z,16.70
2018-02-26T16:51:59.616Z,16.70
2018-02-26T16:54:27.809Z,16.70
2018-02-26T16:56:57.983Z,16.70
2018-02-26T16:59:26.271Z,16.70
2018-02-26T17:01:54.567Z,16.70
2018-02-26T17:04:22.816Z,16.70
2018-02-26T17:06:51.035Z,16.70
2018-02-26T17:09:19.360Z,16.70
2018-02-26T17:11:47.600Z,16.70
2018-02-26T17:14:15.812Z,16.70
2018-02-26T17:16:44.037Z,16.70
2018-02-26T17:19:12.227Z,16.60
2018-02-26T17:21:40.484Z,16.60
2018-02-26T17:24:08.713Z,16.60
2018-02-26T17:26:37.851Z,16.70
2018-02-26T17:29:06.030Z,16.70
2018-02-26T17:31:34.418Z,16.70
2018-02-26T17:34:02.694Z,16.80
2018-02-26T17:36:30.918Z,16.80
2018-02-26T17:38:59.296Z,16.80
2018-02-26T17:41:27.571Z,16.80
2018-02-26T17:43:55.831Z,16.80
2018-02-26T17:46:24.845Z,16.90
2018-02-26T17:48:53.214Z,16.80
2018-02-26T17:51:21.452Z,16.90
2018-02-26T17:53:49.689Z,16.90
2018-02-26T17:56:17.880Z,16.80
2018-02-26T17:58:46.165Z,16.80
2018-02-26T18:01:14.412Z,16.80
2018-02-26T18:03:42.962Z,16.80
2018-02-26T18:06:12.035Z,16.80
2018-02-26T18:08:40.249Z,16.80
2018-02-26T18:11:08.498Z,16.80
2018-02-26T18:13:37.572Z,16.90
2018-02-26T18:16:05.893Z,16.80
2018-02-26T18:18:34.064Z,16.90
2018-02-26T18:21:02.310Z,16.80
2018-02-26T18:23:30.774Z,16.90
2018-02-26T18:25:59.083Z,16.80
2018-02-26T18:28:27.324Z,16.90
2018-02-26T19:00:23.496Z,17.10
2018-02-26T19:02:51.757Z,17.00
2018-02-26T19:05:19.943Z,17.00
2018-02-26T19:07:48.182Z,17.00
2018-02-26T19:10:17.168Z,17.00
2018-02-26T19:12:46.269Z,17.00
2018-02-26T19:15:14.621Z,17.00
2018-02-26T19:17:42.859Z,17.00
2018-02-26T19:20:11.097Z,17.00
2018-02-26T19:22:40.043Z,16.90
2018-02-26T19:25:08.246Z,16.90
2018-02-26T19:27:36.461Z,17.00
2018-02-26T19:30:04.663Z,17.00
2018-02-26T19:32:32.883Z,17.00
2018-02-26T19:35:01.932Z,17.00
2018-02-26T19:37:30.164Z,17.00
2018-02-26T19:39:58.345Z,17.00
2018-02-26T19:42:26.558Z,17.00
2018-02-26T19:44:54.704Z,17.00
2018-02-26T19:47:22.883Z,17.00
2018-02-26T19:49:51.077Z,17.00
2018-02-26T19:52:19.299Z,17.00
2018-02-26T19:54:48.218Z,17.00
2018-02-26T19:57:16.443Z,17.10
2018-02-26T19:59:44.689Z,17.10
2018-02-26T20:02:12.868Z,17.10
2018-02-26T20:04:41.129Z,17.10
2018-02-26T20:07:09.306Z,17.10
2018-02-26T20:09:37.736Z,17.10
2018-02-26T20:12:06.707Z,17.10
2018-02-26T20:14:35.693Z,17.10
2018-02-26T20:17:04.207Z,17.10
2018-02-26T20:19:32.412Z,17.10
2018-02-26T20:22:00.556Z,17.10
2018-02-26T20:24:28.772Z,17.10
2018-02-26T20:26:56.945Z,17.10
2018-02-26T20:29:25.134Z,17.10
2018-02-26T20:31:53.306Z,17.10
2018-02-26T20:34:21.588Z,17.10
2018-02-26T20:36:49.845Z,17.10
2018-02-26T20:39:18.204Z,17.10
2018-02-26T20:41:46.358Z,17.10
2018-02-26T20:44:14.676Z,17.10
2018-02-26T20:46:42.875Z,17.10
2018-02-26T20:49:11.835Z,17.10
2018-02-26T20:51:40.248Z,17.10
2018-02-26T20:54:09.197Z,17.10
2018-02-26T20:56:37.420Z,17.10
2018-02-26T20:59:05.648Z,17.10
2018-02-26T21:01:33.916Z,17.10
2018-02-26T21:04:03.483Z,17.10
2018-02-26T21:06:32.393Z,17.10
2018-02-26T21:09:00.664Z,17.00
2018-02-26T21:11:28.950Z,17.10
2018-02-26T21:13:57.176Z,17.10
2018-02-26T21:16:26.239Z,17.10
2018-02-26T21:18:54.756Z,17.10
2018-02-26T21:21:23.060Z,17.10
2018-02-26T21:23:51.273Z,17.10
2018-02-26T21:26:19.543Z,17.10
2018-02-26T21:28:47.791Z,17.10
2018-02-26T21:31:16.093Z,17.20
2018-02-26T21:33:44.251Z,17.10
2018-02-26T21:36:12.592Z,17.10
2018-02-26T21:38:40.823Z,17.10
2018-02-26T21:41:09.082Z,17.10
2018-02-26T21:43:37.316Z,17.10
2018-02-26T21:46:05.655Z,17.10
2018-02-26T21:48:33.838Z,17.10
2018-02-26T21:51:02.201Z,17.10
2018-02-26T21:53:30.411Z,17.10
2018-02-26T21:55:59.415Z,17.10
2018-02-26T21:58:28.438Z,17.00
2018-02-26T22:00:56.656Z,17.00
2018-02-26T22:03:24.973Z,16.90
2018-02-26T22:05:53.167Z,16.90
2018-02-26T22:08:21.418Z,16.90
2018-02-26T22:10:49.723Z,16.80
2018-02-26T22:13:17.887Z,16.70
2018-02-26T22:15:46.064Z,16.70
2018-02-26T22:18:14.283Z,16.70
2018-02-26T22:20:42.463Z,16.70
2018-02-26T22:23:10.998Z,16.70
2018-02-26T22:25:39.230Z,16.70
2018-02-26T22:28:07.423Z,16.70
2018-02-26T22:30:35.832Z,16.60
2018-02-26T22:33:04.022Z,16.70
2018-02-26T22:35:32.233Z,16.60
2018-02-26T22:38:00.452Z,16.70
2018-02-26T22:40:28.746Z,16.60
2018-02-26T22:42:57.130Z,16.60
2018-02-26T22:45:25.303Z,16.70
2018-02-26T22:47:53.578Z,16.70
2018-02-26T22:50:21.820Z,16.70
2018-02-26T22:52:50.914Z,16.70
2018-02-26T22:55:19.095Z,16.60
2018-02-26T22:57:47.294Z,16.60
2018-02-26T23:00:15.547Z,16.60
2018-02-26T23:02:43.777Z,16.50
2018-02-26T23:05:12.094Z,16.60
2018-02-26T23:07:40.298Z,16.50
2018-02-26T23:10:08.438Z,16.50
2018-02-26T23:12:36.715Z,16.50
2018-02-26T23:15:04.886Z,16.50
2018-02-26T23:17:33.043Z,16.40
2018-02-26T23:20:01.273Z,16.40
2018-02-26T23:22:30.196Z,16.40
2018-02-26T23:24:58.421Z,16.40
2018-02-26T23:27:26.562Z,16.40
2018-02-26T23:29:54.730Z,16.40
2018-02-26T23:32:22.958Z,16.30
2018-02-26T23:34:51.143Z,16.40
2018-02-26T23:37:20.070Z,16.30
2018-02-26T23:39:48.254Z,16.30
2018-02-26T23:42:16.485Z,16.30
2018-02-26T23:44:44.777Z,16.30
2018-02-26T23:47:12.908Z,16.30
2018-02-26T23:49:41.060Z,16.30
2018-02-26T23:52:09.211Z,16.30
2018-02-26T23:54:48.904Z,16.40
2018-02-26T23:57:17.831Z,16.40
2018-02-26T23:59:46.017Z,16.30
